Search for airport 
image banner adimage banner adimage banner ad
image banner ad

19CL - Palisades Ranch

Located in Helendale, United States

ICAO - 19CL, IATA -

Data provided by Airmate  

General information

Coordinates: N36°50'19" W119°39'33"
Elevation is 390 feet MSL.
Magnetic variation is 14° East
View others Airports in California

Operational data

Special qualification required
Current time UTC:
Current local time:
Weather at : KFAT - Fresno Yosemite Intl ( 9 km )
METAR: KFAT 240753Z 32013KT 10SM CLR 23/12 A2992 RMK AO2 SLP127 T02280117 403560183 $
TAF: KFAT 240520Z 2406/2506 30007KT P6SM SKC TEMPO 2408/2412 30012KT
View NOTAMs / SUP AIP / TFR affecting this airport [VIEW]
Communications frequencies: [VIEW]

Runways:

Airport contact information

Address: Helendale United States

Satellite view of 19CL